sensor_id;sensor_type;location;lat;lon;timestamp;P1;durP1;ratioP1;P2;durP2;ratioP2
30215;SDS011;17028;47.642;8.070;2022-09-09T00:02:37;2.10;;;0.77;;
30215;SDS011;17028;47.642;8.070;2022-09-09T00:07:51;2.33;;;0.90;;
30215;SDS011;17028;47.642;8.070;2022-09-09T00:13:09;2.22;;;0.70;;
30215;SDS011;17028;47.642;8.070;2022-09-09T00:18:20;1.13;;;0.70;;
30215;SDS011;17028;47.642;8.070;2022-09-09T00:23:30;1.65;;;0.70;;
30215;SDS011;17028;47.642;8.070;2022-09-09T00:28:36;2.17;;;0.93;;
30215;SDS011;17028;47.642;8.070;2022-09-09T00:33:44;2.63;;;0.70;;
30215;SDS011;17028;47.642;8.070;2022-09-09T00:38:47;1.35;;;0.73;;
30215;SDS011;17028;47.642;8.070;2022-09-09T00:43:56;2.20;;;1.00;;
30215;SDS011;17028;47.642;8.070;2022-09-09T00:54:28;4.18;;;0.98;;
30215;SDS011;17028;47.642;8.070;2022-09-09T00:59:55;1.35;;;0.75;;
30215;SDS011;17028;47.642;8.070;2022-09-09T01:15:51;1.17;;;0.82;;
30215;SDS011;17028;47.642;8.070;2022-09-09T01:31:29;2.42;;;0.80;;
30215;SDS011;17028;47.642;8.070;2022-09-09T01:36:39;3.65;;;1.08;;
30215;SDS011;17028;47.642;8.070;2022-09-09T01:41:47;2.95;;;0.70;;
30215;SDS011;17028;47.642;8.070;2022-09-09T01:46:51;1.27;;;0.63;;
30215;SDS011;17028;47.642;8.070;2022-09-09T01:51:55;2.58;;;0.95;;
30215;SDS011;17028;47.642;8.070;2022-09-09T01:57:18;2.65;;;0.90;;
30215;SDS011;17028;47.642;8.070;2022-09-09T02:02:26;1.50;;;0.80;;
30215;SDS011;17028;47.642;8.070;2022-09-09T02:07:49;1.52;;;0.70;;
30215;SDS011;17028;47.642;8.070;2022-09-09T02:13:08;0.98;;;0.63;;
30215;SDS011;17028;47.642;8.070;2022-09-09T02:18:13;1.48;;;0.70;;
30215;SDS011;17028;47.642;8.070;2022-09-09T02:23:18;3.08;;;0.90;;
30215;SDS011;17028;47.642;8.070;2022-09-09T02:28:24;2.78;;;0.88;;
30215;SDS011;17028;47.642;8.070;2022-09-09T02:33:30;2.65;;;0.90;;
30215;SDS011;17028;47.642;8.070;2022-09-09T02:38:40;2.55;;;1.10;;
30215;SDS011;17028;47.642;8.070;2022-09-09T02:43:49;1.75;;;0.75;;
30215;SDS011;17028;47.642;8.070;2022-09-09T02:48:52;3.83;;;1.10;;
30215;SDS011;17028;47.642;8.070;2022-09-09T02:59:22;1.50;;;0.85;;
30215;SDS011;17028;47.642;8.070;2022-09-09T03:04:27;0.82;;;0.70;;
30215;SDS011;17028;47.642;8.070;2022-09-09T03:09:28;2.53;;;0.82;;
30215;SDS011;17028;47.642;8.070;2022-09-09T03:14:30;1.50;;;0.90;;
30215;SDS011;17028;47.642;8.070;2022-09-09T03:19:32;0.80;;;0.60;;
30215;SDS011;17028;47.642;8.070;2022-09-09T03:24:34;2.03;;;0.82;;
30215;SDS011;17028;47.642;8.070;2022-09-09T03:29:38;0.63;;;0.63;;
30215;SDS011;17028;47.642;8.070;2022-09-09T03:34:42;1.73;;;0.80;;
30215;SDS011;17028;47.642;8.070;2022-09-09T03:39:46;1.40;;;0.63;;
30215;SDS011;17028;47.642;8.070;2022-09-09T03:44:50;1.02;;;0.60;;
30215;SDS011;17028;47.642;8.070;2022-09-09T03:49:53;0.85;;;0.40;;
30215;SDS011;17028;47.642;8.070;2022-09-09T03:54:54;0.50;;;0.40;;
30215;SDS011;17028;47.642;8.070;2022-09-09T03:59:56;1.85;;;0.75;;
30215;SDS011;17028;47.642;8.070;2022-09-09T04:04:57;1.27;;;0.73;;
30215;SDS011;17028;47.642;8.070;2022-09-09T04:09:59;0.88;;;0.50;;
30215;SDS011;17028;47.642;8.070;2022-09-09T04:15:00;0.75;;;0.50;;
30215;SDS011;17028;47.642;8.070;2022-09-09T04:20:03;0.70;;;0.50;;
30215;SDS011;17028;47.642;8.070;2022-09-09T04:25:07;0.55;;;0.50;;
30215;SDS011;17028;47.642;8.070;2022-09-09T04:30:09;1.05;;;0.50;;
30215;SDS011;17028;47.642;8.070;2022-09-09T04:35:14;1.15;;;0.60;;
30215;SDS011;17028;47.642;8.070;2022-09-09T04:40:15;1.08;;;0.65;;
30215;SDS011;17028;47.642;8.070;2022-09-09T04:45:17;1.45;;;0.55;;
30215;SDS011;17028;47.642;8.070;2022-09-09T04:50:20;0.60;;;0.43;;
30215;SDS011;17028;47.642;8.070;2022-09-09T04:55:21;1.30;;;0.60;;
30215;SDS011;17028;47.642;8.070;2022-09-09T05:00:26;0.93;;;0.60;;
30215;SDS011;17028;47.642;8.070;2022-09-09T05:05:27;0.75;;;0.50;;
30215;SDS011;17028;47.642;8.070;2022-09-09T05:10:29;1.17;;;0.55;;
30215;SDS011;17028;47.642;8.070;2022-09-09T05:15:32;1.45;;;0.52;;
30215;SDS011;17028;47.642;8.070;2022-09-09T05:20:33;1.10;;;0.65;;
30215;SDS011;17028;47.642;8.070;2022-09-09T05:25:36;1.30;;;0.60;;
30215;SDS011;17028;47.642;8.070;2022-09-09T05:30:37;0.68;;;0.50;;
30215;SDS011;17028;47.642;8.070;2022-09-09T05:35:39;0.90;;;0.60;;
30215;SDS011;17028;47.642;8.070;2022-09-09T05:40:46;1.58;;;0.70;;
30215;SDS011;17028;47.642;8.070;2022-09-09T05:45:59;1.30;;;0.60;;
30215;SDS011;17028;47.642;8.070;2022-09-09T05:51:11;1.08;;;0.68;;
30215;SDS011;17028;47.642;8.070;2022-09-09T05:56:15;0.55;;;0.47;;
30215;SDS011;17028;47.642;8.070;2022-09-09T06:01:31;1.50;;;0.45;;
30215;SDS011;17028;47.642;8.070;2022-09-09T06:06:35;3.55;;;1.10;;
30215;SDS011;17028;47.642;8.070;2022-09-09T06:11:39;2.15;;;0.70;;
30215;SDS011;17028;47.642;8.070;2022-09-09T06:16:40;1.67;;;1.10;;
30215;SDS011;17028;47.642;8.070;2022-09-09T06:21:52;1.98;;;0.98;;
30215;SDS011;17028;47.642;8.070;2022-09-09T06:26:54;1.58;;;0.80;;
30215;SDS011;17028;47.642;8.070;2022-09-09T06:32:00;1.80;;;0.90;;
30215;SDS011;17028;47.642;8.070;2022-09-09T06:37:01;2.17;;;1.15;;
30215;SDS011;17028;47.642;8.070;2022-09-09T06:42:11;1.75;;;0.70;;
30215;SDS011;17028;47.642;8.070;2022-09-09T06:47:21;1.42;;;0.80;;
30215;SDS011;17028;47.642;8.070;2022-09-09T06:52:22;3.97;;;1.50;;
30215;SDS011;17028;47.642;8.070;2022-09-09T06:57:25;3.28;;;1.38;;
30215;SDS011;17028;47.642;8.070;2022-09-09T07:02:27;3.63;;;1.73;;
30215;SDS011;17028;47.642;8.070;2022-09-09T07:07:29;3.78;;;1.45;;
30215;SDS011;17028;47.642;8.070;2022-09-09T07:12:31;2.88;;;1.55;;
30215;SDS011;17028;47.642;8.070;2022-09-09T07:17:34;5.47;;;1.42;;
30215;SDS011;17028;47.642;8.070;2022-09-09T07:22:35;4.10;;;1.35;;
30215;SDS011;17028;47.642;8.070;2022-09-09T07:27:37;6.10;;;1.27;;
30215;SDS011;17028;47.642;8.070;2022-09-09T07:32:38;4.10;;;1.33;;
30215;SDS011;17028;47.642;8.070;2022-09-09T07:37:40;3.10;;;1.00;;
30215;SDS011;17028;47.642;8.070;2022-09-09T07:42:42;3.83;;;1.27;;
30215;SDS011;17028;47.642;8.070;2022-09-09T07:47:43;4.00;;;1.15;;
30215;SDS011;17028;47.642;8.070;2022-09-09T07:52:44;4.93;;;1.10;;
30215;SDS011;17028;47.642;8.070;2022-09-09T07:57:45;4.88;;;1.27;;
30215;SDS011;17028;47.642;8.070;2022-09-09T08:02:48;5.20;;;1.10;;
30215;SDS011;17028;47.642;8.070;2022-09-09T08:07:49;4.20;;;1.30;;
30215;SDS011;17028;47.642;8.070;2022-09-09T08:12:50;4.65;;;1.33;;
30215;SDS011;17028;47.642;8.070;2022-09-09T08:17:53;5.68;;;1.38;;
30215;SDS011;17028;47.642;8.070;2022-09-09T08:22:54;3.65;;;1.00;;
30215;SDS011;17028;47.642;8.070;2022-09-09T08:27:56;3.40;;;1.15;;
30215;SDS011;17028;47.642;8.070;2022-09-09T08:32:57;5.30;;;1.35;;
30215;SDS011;17028;47.642;8.070;2022-09-09T08:38:00;5.80;;;1.08;;
30215;SDS011;17028;47.642;8.070;2022-09-09T08:43:02;6.43;;;1.23;;
30215;SDS011;17028;47.642;8.070;2022-09-09T08:58:28;2.15;;;0.95;;
30215;SDS011;17028;47.642;8.070;2022-09-09T09:03:49;5.38;;;1.30;;
30215;SDS011;17028;47.642;8.070;2022-09-09T09:14:24;3.63;;;1.17;;
30215;SDS011;17028;47.642;8.070;2022-09-09T09:19:29;4.95;;;1.05;;
30215;SDS011;17028;47.642;8.070;2022-09-09T09:29:57;3.20;;;0.80;;
30215;SDS011;17028;47.642;8.070;2022-09-09T09:35:02;3.63;;;0.95;;
30215;SDS011;17028;47.642;8.070;2022-09-09T09:40:15;4.28;;;0.85;;
30215;SDS011;17028;47.642;8.070;2022-09-09T09:45:28;2.13;;;0.90;;
30215;SDS011;17028;47.642;8.070;2022-09-09T09:50:40;4.07;;;1.00;;
30215;SDS011;17028;47.642;8.070;2022-09-09T09:55:54;4.40;;;0.90;;
30215;SDS011;17028;47.642;8.070;2022-09-09T10:01:01;4.07;;;0.90;;
30215;SDS011;17028;47.642;8.070;2022-09-09T10:06:04;4.57;;;1.08;;
30215;SDS011;17028;47.642;8.070;2022-09-09T10:48:16;3.20;;;0.82;;
30215;SDS011;17028;47.642;8.070;2022-09-09T10:59:14;4.00;;;0.88;;
30215;SDS011;17028;47.642;8.070;2022-09-09T11:09:35;3.35;;;0.75;;
30215;SDS011;17028;47.642;8.070;2022-09-09T11:14:55;2.50;;;0.82;;
30215;SDS011;17028;47.642;8.070;2022-09-09T11:20:05;3.63;;;0.90;;
30215;SDS011;17028;47.642;8.070;2022-09-09T11:30:19;1.73;;;0.55;;
30215;SDS011;17028;47.642;8.070;2022-09-09T11:41:09;5.28;;;0.90;;
30215;SDS011;17028;47.642;8.070;2022-09-09T11:46:10;3.47;;;0.88;;
30215;SDS011;17028;47.642;8.070;2022-09-09T12:01:44;2.72;;;0.70;;
30215;SDS011;17028;47.642;8.070;2022-09-09T12:06:48;2.97;;;0.80;;
30215;SDS011;17028;47.642;8.070;2022-09-09T12:11:53;4.05;;;0.90;;
30215;SDS011;17028;47.642;8.070;2022-09-09T12:22:20;5.10;;;0.98;;
30215;SDS011;17028;47.642;8.070;2022-09-09T12:27:46;4.25;;;0.90;;
30215;SDS011;17028;47.642;8.070;2022-09-09T12:33:06;4.88;;;0.98;;
30215;SDS011;17028;47.642;8.070;2022-09-09T12:38:13;4.78;;;0.80;;
30215;SDS011;17028;47.642;8.070;2022-09-09T12:43:22;4.30;;;0.80;;
30215;SDS011;17028;47.642;8.070;2022-09-09T12:48:47;3.03;;;0.90;;
30215;SDS011;17028;47.642;8.070;2022-09-09T12:53:46;3.13;;;0.90;;
30215;SDS011;17028;47.642;8.070;2022-09-09T12:58:49;1.92;;;0.55;;
30215;SDS011;17028;47.642;8.070;2022-09-09T13:03:52;3.55;;;0.80;;
30215;SDS011;17028;47.642;8.070;2022-09-09T13:08:54;3.65;;;0.63;;
30215;SDS011;17028;47.642;8.070;2022-09-09T13:13:56;2.40;;;0.80;;
30215;SDS011;17028;47.642;8.070;2022-09-09T13:19:07;2.67;;;0.68;;
30215;SDS011;17028;47.642;8.070;2022-09-09T13:24:30;3.00;;;0.93;;
30215;SDS011;17028;47.642;8.070;2022-09-09T13:29:33;3.20;;;0.70;;
30215;SDS011;17028;47.642;8.070;2022-09-09T13:34:35;3.90;;;1.00;;
30215;SDS011;17028;47.642;8.070;2022-09-09T13:39:36;4.30;;;0.65;;
30215;SDS011;17028;47.642;8.070;2022-09-09T13:44:38;3.97;;;0.60;;
30215;SDS011;17028;47.642;8.070;2022-09-09T13:49:42;1.90;;;0.57;;
30215;SDS011;17028;47.642;8.070;2022-09-09T13:54:46;4.50;;;0.52;;
30215;SDS011;17028;47.642;8.070;2022-09-09T13:59:52;1.92;;;0.60;;
30215;SDS011;17028;47.642;8.070;2022-09-09T14:04:55;1.23;;;0.40;;
30215;SDS011;17028;47.642;8.070;2022-09-09T14:09:56;1.52;;;0.52;;
30215;SDS011;17028;47.642;8.070;2022-09-09T14:14:57;2.35;;;0.60;;
30215;SDS011;17028;47.642;8.070;2022-09-09T14:20:00;3.05;;;0.65;;
30215;SDS011;17028;47.642;8.070;2022-09-09T14:25:01;2.22;;;0.80;;
30215;SDS011;17028;47.642;8.070;2022-09-09T14:30:03;1.85;;;0.57;;
30215;SDS011;17028;47.642;8.070;2022-09-09T14:35:05;2.28;;;0.60;;
30215;SDS011;17028;47.642;8.070;2022-09-09T14:40:06;3.40;;;0.45;;
30215;SDS011;17028;47.642;8.070;2022-09-09T14:45:08;2.33;;;0.63;;
30215;SDS011;17028;47.642;8.070;2022-09-09T14:50:10;1.88;;;0.60;;
30215;SDS011;17028;47.642;8.070;2022-09-09T14:55:13;3.83;;;0.52;;
30215;SDS011;17028;47.642;8.070;2022-09-09T15:00:14;2.78;;;0.68;;
30215;SDS011;17028;47.642;8.070;2022-09-09T15:05:16;2.75;;;0.60;;
30215;SDS011;17028;47.642;8.070;2022-09-09T15:10:17;2.75;;;0.82;;
30215;SDS011;17028;47.642;8.070;2022-09-09T15:15:18;2.90;;;0.77;;
30215;SDS011;17028;47.642;8.070;2022-09-09T15:20:19;2.90;;;0.60;;
30215;SDS011;17028;47.642;8.070;2022-09-09T15:25:20;3.58;;;0.70;;
30215;SDS011;17028;47.642;8.070;2022-09-09T15:30:22;2.78;;;0.50;;
30215;SDS011;17028;47.642;8.070;2022-09-09T15:35:23;5.80;;;0.80;;
30215;SDS011;17028;47.642;8.070;2022-09-09T15:40:24;2.95;;;0.70;;
30215;SDS011;17028;47.642;8.070;2022-09-09T15:45:25;3.53;;;0.80;;
30215;SDS011;17028;47.642;8.070;2022-09-09T15:50:27;2.60;;;0.70;;
30215;SDS011;17028;47.642;8.070;2022-09-09T15:55:32;1.75;;;0.50;;
30215;SDS011;17028;47.642;8.070;2022-09-09T16:00:33;3.35;;;0.60;;
30215;SDS011;17028;47.642;8.070;2022-09-09T16:05:35;2.03;;;0.50;;
30215;SDS011;17028;47.642;8.070;2022-09-09T16:10:36;3.33;;;0.63;;
30215;SDS011;17028;47.642;8.070;2022-09-09T16:15:37;1.23;;;0.50;;
30215;SDS011;17028;47.642;8.070;2022-09-09T16:20:38;1.77;;;0.60;;
30215;SDS011;17028;47.642;8.070;2022-09-09T16:25:40;1.60;;;0.60;;
30215;SDS011;17028;47.642;8.070;2022-09-09T16:30:42;3.85;;;0.80;;
30215;SDS011;17028;47.642;8.070;2022-09-09T16:35:43;2.00;;;0.65;;
30215;SDS011;17028;47.642;8.070;2022-09-09T16:40:44;4.30;;;0.98;;
30215;SDS011;17028;47.642;8.070;2022-09-09T16:45:46;2.38;;;0.60;;
30215;SDS011;17028;47.642;8.070;2022-09-09T16:50:47;3.42;;;0.70;;
30215;SDS011;17028;47.642;8.070;2022-09-09T16:55:48;0.93;;;0.40;;
30215;SDS011;17028;47.642;8.070;2022-09-09T17:00:49;2.47;;;0.90;;
30215;SDS011;17028;47.642;8.070;2022-09-09T17:05:51;3.30;;;0.52;;
30215;SDS011;17028;47.642;8.070;2022-09-09T17:10:52;2.33;;;0.60;;
30215;SDS011;17028;47.642;8.070;2022-09-09T17:15:53;1.25;;;0.40;;
30215;SDS011;17028;47.642;8.070;2022-09-09T17:20:54;1.30;;;0.40;;
30215;SDS011;17028;47.642;8.070;2022-09-09T17:25:56;0.95;;;0.35;;
30215;SDS011;17028;47.642;8.070;2022-09-09T17:30:58;0.98;;;0.38;;
30215;SDS011;17028;47.642;8.070;2022-09-09T17:36:04;0.73;;;0.20;;
30215;SDS011;17028;47.642;8.070;2022-09-09T17:41:13;1.10;;;0.30;;
30215;SDS011;17028;47.642;8.070;2022-09-09T17:51:21;0.43;;;0.40;;
30215;SDS011;17028;47.642;8.070;2022-09-09T17:56:29;0.63;;;0.45;;
30215;SDS011;17028;47.642;8.070;2022-09-09T18:01:33;1.67;;;0.47;;
30215;SDS011;17028;47.642;8.070;2022-09-09T18:06:37;2.25;;;0.75;;
30215;SDS011;17028;47.642;8.070;2022-09-09T18:11:42;0.75;;;0.40;;
30215;SDS011;17028;47.642;8.070;2022-09-09T18:16:46;1.53;;;0.40;;
30215;SDS011;17028;47.642;8.070;2022-09-09T18:21:48;0.20;;;0.17;;
30215;SDS011;17028;47.642;8.070;2022-09-09T18:26:49;0.35;;;0.20;;
30215;SDS011;17028;47.642;8.070;2022-09-09T18:31:51;1.63;;;0.40;;
30215;SDS011;17028;47.642;8.070;2022-09-09T18:36:53;1.70;;;0.30;;
30215;SDS011;17028;47.642;8.070;2022-09-09T18:41:57;2.33;;;0.45;;
30215;SDS011;17028;47.642;8.070;2022-09-09T18:47:00;0.55;;;0.30;;
30215;SDS011;17028;47.642;8.070;2022-09-09T18:52:02;0.38;;;0.30;;
30215;SDS011;17028;47.642;8.070;2022-09-09T18:57:03;1.65;;;0.40;;
30215;SDS011;17028;47.642;8.070;2022-09-09T19:02:05;1.65;;;0.52;;
30215;SDS011;17028;47.642;8.070;2022-09-09T19:07:06;0.30;;;0.30;;
30215;SDS011;17028;47.642;8.070;2022-09-09T19:12:07;0.85;;;0.38;;
30215;SDS011;17028;47.642;8.070;2022-09-09T19:17:08;1.70;;;0.40;;
30215;SDS011;17028;47.642;8.070;2022-09-09T19:22:09;0.52;;;0.43;;
30215;SDS011;17028;47.642;8.070;2022-09-09T19:27:11;1.95;;;0.40;;
30215;SDS011;17028;47.642;8.070;2022-09-09T19:32:12;1.15;;;0.50;;
30215;SDS011;17028;47.642;8.070;2022-09-09T19:37:13;1.30;;;0.50;;
30215;SDS011;17028;47.642;8.070;2022-09-09T19:42:14;1.65;;;0.60;;
30215;SDS011;17028;47.642;8.070;2022-09-09T19:47:16;3.90;;;0.70;;
30215;SDS011;17028;47.642;8.070;2022-09-09T19:52:18;1.80;;;0.70;;
30215;SDS011;17028;47.642;8.070;2022-09-09T19:57:19;2.47;;;0.80;;
30215;SDS011;17028;47.642;8.070;2022-09-09T20:02:20;2.00;;;0.50;;
30215;SDS011;17028;47.642;8.070;2022-09-09T20:07:21;2.35;;;0.73;;
30215;SDS011;17028;47.642;8.070;2022-09-09T20:12:23;2.30;;;0.60;;
30215;SDS011;17028;47.642;8.070;2022-09-09T20:17:24;1.38;;;0.50;;
30215;SDS011;17028;47.642;8.070;2022-09-09T20:22:25;1.35;;;0.57;;
30215;SDS011;17028;47.642;8.070;2022-09-09T20:27:26;1.63;;;0.60;;
30215;SDS011;17028;47.642;8.070;2022-09-09T20:32:28;1.98;;;0.70;;
30215;SDS011;17028;47.642;8.070;2022-09-09T20:37:29;1.15;;;0.50;;
30215;SDS011;17028;47.642;8.070;2022-09-09T20:42:31;2.22;;;0.80;;
30215;SDS011;17028;47.642;8.070;2022-09-09T20:47:32;1.95;;;0.60;;
30215;SDS011;17028;47.642;8.070;2022-09-09T20:52:33;1.58;;;0.50;;
30215;SDS011;17028;47.642;8.070;2022-09-09T20:57:34;2.72;;;0.70;;
30215;SDS011;17028;47.642;8.070;2022-09-09T21:02:35;1.13;;;0.50;;
30215;SDS011;17028;47.642;8.070;2022-09-09T21:07:36;0.90;;;0.40;;
30215;SDS011;17028;47.642;8.070;2022-09-09T21:12:37;0.43;;;0.40;;
30215;SDS011;17028;47.642;8.070;2022-09-09T21:17:39;1.42;;;0.40;;
30215;SDS011;17028;47.642;8.070;2022-09-09T21:22:40;1.10;;;0.40;;
30215;SDS011;17028;47.642;8.070;2022-09-09T21:27:41;1.42;;;0.57;;
30215;SDS011;17028;47.642;8.070;2022-09-09T21:32:42;1.17;;;0.50;;
30215;SDS011;17028;47.642;8.070;2022-09-09T21:37:43;0.32;;;0.30;;
30215;SDS011;17028;47.642;8.070;2022-09-09T21:42:44;1.20;;;0.40;;
30215;SDS011;17028;47.642;8.070;2022-09-09T21:47:46;0.65;;;0.32;;
30215;SDS011;17028;47.642;8.070;2022-09-09T21:52:47;1.98;;;0.45;;
30215;SDS011;17028;47.642;8.070;2022-09-09T21:57:48;0.35;;;0.25;;
30215;SDS011;17028;47.642;8.070;2022-09-09T22:02:51;0.95;;;0.30;;
30215;SDS011;17028;47.642;8.070;2022-09-09T22:07:52;1.25;;;0.40;;
30215;SDS011;17028;47.642;8.070;2022-09-09T22:12:53;0.73;;;0.30;;
30215;SDS011;17028;47.642;8.070;2022-09-09T22:17:55;0.65;;;0.20;;
30215;SDS011;17028;47.642;8.070;2022-09-09T22:22:56;1.27;;;0.40;;
30215;SDS011;17028;47.642;8.070;2022-09-09T22:27:57;0.40;;;0.40;;
30215;SDS011;17028;47.642;8.070;2022-09-09T22:32:58;0.88;;;0.40;;
30215;SDS011;17028;47.642;8.070;2022-09-09T22:38:00;0.45;;;0.30;;
30215;SDS011;17028;47.642;8.070;2022-09-09T22:43:01;1.13;;;0.40;;
30215;SDS011;17028;47.642;8.070;2022-09-09T22:48:03;1.25;;;0.50;;
30215;SDS011;17028;47.642;8.070;2022-09-09T22:53:04;1.60;;;0.60;;
30215;SDS011;17028;47.642;8.070;2022-09-09T22:58:06;0.90;;;0.40;;
30215;SDS011;17028;47.642;8.070;2022-09-09T23:03:07;1.10;;;0.50;;
30215;SDS011;17028;47.642;8.070;2022-09-09T23:08:08;0.63;;;0.30;;
30215;SDS011;17028;47.642;8.070;2022-09-09T23:13:09;0.68;;;0.30;;
30215;SDS011;17028;47.642;8.070;2022-09-09T23:18:10;1.17;;;0.38;;
30215;SDS011;17028;47.642;8.070;2022-09-09T23:23:14;1.20;;;0.50;;
30215;SDS011;17028;47.642;8.070;2022-09-09T23:28:15;1.15;;;0.50;;
30215;SDS011;17028;47.642;8.070;2022-09-09T23:33:16;0.45;;;0.30;;
30215;SDS011;17028;47.642;8.070;2022-09-09T23:38:17;0.77;;;0.30;;
30215;SDS011;17028;47.642;8.070;2022-09-09T23:43:18;0.70;;;0.30;;
30215;SDS011;17028;47.642;8.070;2022-09-09T23:48:22;1.42;;;0.50;;
30215;SDS011;17028;47.642;8.070;2022-09-09T23:53:26;0.60;;;0.30;;
30215;SDS011;17028;47.642;8.070;2022-09-09T23:58:29;0.98;;;0.40;;
